Time;durP1;ratioP1;P1;durP2;ratioP2;P2;SDS_P1;SDS_P2;PMS_P1;PMS_P2;Temp;Humidity;BMP_temperature;BMP_pressure;BME280_temperature;BME280_humidity;BME280_pressure;Samples;Min_cycle;Max_cycle;Signal;HPM_P1;HPM_P2
2021/11/05 00:00:53;;;;;;;52.40;25.37;;;8.60;98.80;;;;;;4880901;29;20036;-76
2021/11/05 00:03:19;;;;;;;43.40;25.57;;;8.60;99.00;;;;;;4896650;29;20493;-76
2021/11/05 00:05:45;;;;;;;51.10;24.27;;;8.60;98.80;;;;;;4880852;29;20135;-76
2021/11/05 00:08:10;;;;;;;44.57;25.03;;;8.60;98.80;;;;;;4881218;29;20036;-76
2021/11/05 00:10:38;;;;;;;49.77;24.00;;;8.60;98.80;;;;;;4896440;29;20036;-76
2021/11/05 00:13:04;;;;;;;41.90;23.97;;;8.70;98.80;;;;;;4896621;29;20048;-77
2021/11/05 00:15:30;;;;;;;48.33;21.57;;;8.60;98.70;;;;;;4896889;29;20132;-77
2021/11/05 00:17:56;;;;;;;42.50;22.30;;;8.60;98.70;;;;;;4897252;29;20488;-77
2021/11/05 00:20:22;;;;;;;40.33;22.10;;;8.70;98.70;;;;;;4880950;29;20044;-75
2021/11/05 00:22:47;;;;;;;55.33;22.23;;;8.60;98.50;;;;;;4897005;29;20045;-77
2021/11/05 00:25:13;;;;;;;51.47;22.27;;;8.50;98.50;;;;;;4896650;29;20041;-78
2021/11/05 00:27:40;;;;;;;44.10;22.53;;;8.50;98.70;;;;;;4896856;29;20148;-77
2021/11/05 00:30:08;;;;;;;39.63;22.43;;;8.50;98.80;;;;;;4881161;29;20101;-77
2021/11/05 00:32:34;;;;;;;50.93;22.77;;;8.50;98.80;;;;;;4896790;29;20627;-76
2021/11/05 00:35:00;;;;;;;39.83;20.30;;;8.50;98.70;;;;;;4896894;29;20037;-76
2021/11/05 00:37:26;;;;;;;31.23;20.13;;;8.50;98.70;;;;;;4880647;29;20135;-76
2021/11/05 00:39:52;;;;;;;46.73;20.97;;;8.50;98.70;;;;;;4899548;29;20541;-76
2021/11/05 00:42:18;;;;;;;34.70;22.13;;;8.40;98.60;;;;;;4899898;29;20135;-78
2021/11/05 00:44:43;;;;;;;33.57;20.70;;;8.40;98.60;;;;;;4901526;29;20043;-76
2021/11/05 00:47:09;;;;;;;38.27;20.13;;;8.40;98.70;;;;;;4901524;29;20388;-76
2021/11/05 00:49:35;;;;;;;26.57;20.23;;;8.40;98.60;;;;;;4900112;29;20048;-76
2021/11/05 00:52:00;;;;;;;29.63;18.30;;;8.40;98.70;;;;;;4885009;29;20502;-76
2021/11/05 00:54:26;;;;;;;32.07;19.93;;;8.40;98.60;;;;;;4901163;29;20044;-76
2021/11/05 00:56:52;;;;;;;25.83;19.50;;;8.50;98.60;;;;;;4900607;29;20071;-77
2021/11/05 00:59:17;;;;;;;30.23;19.67;;;8.40;98.50;;;;;;4902079;29;20040;-75
2021/11/05 01:01:43;;;;;;;31.40;20.23;;;8.40;98.50;;;;;;4900312;29;20036;-76
2021/11/05 01:04:09;;;;;;;29.63;21.07;;;8.40;98.40;;;;;;4884495;29;20397;-75
2021/11/05 01:06:35;;;;;;;28.03;19.37;;;8.30;98.40;;;;;;4884045;29;20049;-76
2021/11/05 01:09:01;;;;;;;25.83;19.87;;;8.30;98.50;;;;;;4884988;29;20049;-76
2021/11/05 01:11:27;;;;;;;27.00;19.57;;;8.30;98.50;;;;;;4901491;29;20101;-76
2021/11/05 01:13:53;;;;;;;28.43;20.20;;;8.30;98.40;;;;;;4906137;29;20053;-75
2021/11/05 01:16:19;;;;;;;26.20;19.53;;;8.20;98.30;;;;;;4906459;29;20040;-77
2021/11/05 01:18:46;;;;;;;25.90;19.80;;;8.20;98.30;;;;;;4884489;29;20037;-75
2021/11/05 01:21:12;;;;;;;24.57;19.60;;;8.20;98.40;;;;;;4884954;29;20079;-77
2021/11/05 01:23:37;;;;;;;25.40;19.20;;;8.20;98.30;;;;;;4883705;29;20076;-76
2021/11/05 01:26:03;;;;;;;26.93;19.67;;;8.20;98.20;;;;;;4884064;29;20068;-76
2021/11/05 01:28:29;;;;;;;25.50;20.40;;;8.10;98.20;;;;;;4900429;29;20116;-76
2021/11/05 01:30:55;;;;;;;25.30;20.13;;;8.10;98.30;;;;;;4884577;29;20127;-76
2021/11/05 01:33:21;;;;;;;27.67;20.13;;;8.10;98.40;;;;;;4900488;29;20052;-76
2021/11/05 01:35:46;;;;;;;32.27;21.17;;;8.10;98.30;;;;;;4898757;29;20040;-76
2021/11/05 01:38:12;;;;;;;38.87;19.37;;;8.00;98.30;;;;;;4899159;29;20133;-76
2021/11/05 01:40:42;;;;;;;31.07;19.67;;;8.00;98.20;;;;;;4899031;29;20051;-76
2021/11/05 01:43:09;;;;;;;32.67;19.67;;;7.90;98.10;;;;;;4899557;29;20101;-76
2021/11/05 01:45:34;;;;;;;26.63;20.53;;;7.90;98.20;;;;;;4900596;29;20145;-76
2021/11/05 01:48:00;;;;;;;36.60;19.70;;;7.80;98.30;;;;;;4899013;29;20048;-76
2021/11/05 01:50:27;;;;;;;37.03;18.87;;;7.80;98.30;;;;;;4898156;29;20119;-78
2021/11/05 01:52:53;;;;;;;32.83;18.53;;;7.70;98.20;;;;;;4899481;29;20506;-76
2021/11/05 01:55:19;;;;;;;38.03;18.23;;;7.70;98.30;;;;;;4883159;29;20096;-77
2021/11/05 01:57:45;;;;;;;44.77;19.80;;;7.60;98.30;;;;;;4898947;29;20466;-77
2021/11/05 02:00:14;;;;;;;35.73;20.93;;;7.50;98.40;;;;;;4883671;29;20048;-76
2021/11/05 02:02:40;;;;;;;34.80;20.37;;;7.50;98.60;;;;;;4899130;29;20045;-76
2021/11/05 02:05:06;;;;;;;28.77;18.67;;;7.60;98.70;;;;;;4898506;29;20035;-76
2021/11/05 02:07:35;;;;;;;36.33;18.43;;;7.50;98.60;;;;;;4899928;29;20442;-76
2021/11/05 02:10:05;;;;;;;27.47;18.53;;;7.40;98.40;;;;;;4899887;29;20037;-76
2021/11/05 02:12:32;;;;;;;33.70;19.37;;;7.30;98.50;;;;;;4899488;29;20040;-78
2021/11/05 02:14:59;;;;;;;25.23;19.87;;;7.30;98.60;;;;;;4882764;29;20478;-76
2021/11/05 02:17:25;;;;;;;24.50;19.00;;;7.30;98.80;;;;;;4899856;29;20097;-77
2021/11/05 02:19:51;;;;;;;26.23;18.33;;;7.20;98.70;;;;;;4898981;29;20059;-76
2021/11/05 02:22:17;;;;;;;24.77;19.20;;;7.10;98.70;;;;;;4898617;29;20049;-77
2021/11/05 02:24:42;;;;;;;22.93;19.30;;;7.00;98.70;;;;;;4899907;29;20048;-77
2021/11/05 02:27:09;;;;;;;21.97;18.27;;;6.90;98.70;;;;;;4898826;29;20036;-77
2021/11/05 02:29:35;;;;;;;21.83;18.10;;;6.90;98.90;;;;;;4899196;29;20047;-77
2021/11/05 02:32:01;;;;;;;22.47;17.97;;;6.90;99.00;;;;;;4883232;29;20041;-77
2021/11/05 02:34:28;;;;;;;21.27;18.20;;;6.90;99.00;;;;;;4898173;29;20063;-76
2021/11/05 02:36:54;;;;;;;23.33;18.23;;;6.80;99.00;;;;;;4898563;29;20041;-77
2021/11/05 02:39:21;;;;;;;20.83;18.13;;;6.70;99.00;;;;;;4882337;29;20506;-76
2021/11/05 02:41:49;;;;;;;23.80;18.80;;;6.70;99.00;;;;;;4882359;29;20040;-76
2021/11/05 02:44:16;;;;;;;29.77;18.77;;;6.60;98.90;;;;;;4882483;29;20055;-77
2021/11/05 02:46:42;;;;;;;36.10;19.63;;;6.60;98.90;;;;;;4882279;29;20090;-76
2021/11/05 02:49:08;;;;;;;25.80;19.97;;;6.50;99.00;;;;;;4899380;29;20068;-76
2021/11/05 02:51:37;;;;;;;23.07;19.33;;;6.50;99.20;;;;;;4897997;29;20036;-79
2021/11/05 02:54:04;;;;;;;20.47;17.70;;;6.50;99.30;;;;;;4899179;29;20044;-76
2021/11/05 02:56:30;;;;;;;20.63;18.40;;;6.50;99.40;;;;;;4882079;29;20045;-77
2021/11/05 02:58:58;;;;;;;20.47;17.87;;;6.40;99.00;;;;;;4897770;29;20092;-77
2021/11/05 03:01:24;;;;;;;24.70;18.67;;;6.40;99.30;;;;;;4897636;29;20127;-78
2021/11/05 03:03:50;;;;;;;19.93;17.67;;;6.20;98.80;;;;;;4881754;29;20048;-77
2021/11/05 03:06:16;;;;;;;24.30;18.60;;;6.20;99.00;;;;;;4898989;29;20397;-77
2021/11/05 03:08:43;;;;;;;24.03;18.17;;;6.20;99.10;;;;;;4897541;29;20389;-77
2021/11/05 03:11:12;;;;;;;19.27;16.87;;;6.20;99.20;;;;;;4897203;29;20585;-77
2021/11/05 03:13:40;;;;;;;21.73;18.20;;;6.20;99.20;;;;;;4897602;29;20040;-80
2021/11/05 03:16:06;;;;;;;21.53;18.33;;;6.10;99.20;;;;;;4898807;29;20044;-78
2021/11/05 03:18:34;;;;;;;22.90;18.40;;;6.10;99.20;;;;;;4881669;29;20040;-78
2021/11/05 03:21:00;;;;;;;22.83;17.67;;;6.10;99.30;;;;;;4881496;29;20056;-77
2021/11/05 03:23:29;;;;;;;24.13;18.20;;;6.10;99.30;;;;;;4881608;29;20052;-78
2021/11/05 03:25:54;;;;;;;21.50;18.07;;;6.10;99.30;;;;;;4897108;29;20116;-77
2021/11/05 03:28:20;;;;;;;24.47;18.67;;;6.10;99.30;;;;;;4881578;29;20485;-78
2021/11/05 03:30:46;;;;;;;26.20;19.73;;;6.10;99.50;;;;;;4897078;29;20123;-77
2021/11/05 03:33:12;;;;;;;22.80;19.67;;;6.10;99.50;;;;;;4898709;29;20048;-77
2021/11/05 03:35:38;;;;;;;24.83;19.50;;;6.00;99.40;;;;;;4898487;29;20524;-76
2021/11/05 03:38:03;;;;;;;23.80;18.93;;;6.10;99.60;;;;;;4881208;29;20097;-76
2021/11/05 03:40:29;;;;;;;26.97;19.23;;;6.10;99.70;;;;;;4881285;29;20052;-76
2021/11/05 03:42:55;;;;;;;25.90;19.07;;;6.20;99.70;;;;;;4898279;29;20131;-76
2021/11/05 03:45:21;;;;;;;26.47;19.77;;;6.20;99.60;;;;;;4896782;29;20028;-76
2021/11/05 03:47:49;;;;;;;26.77;18.20;;;6.20;99.70;;;;;;4881330;29;20095;-76
2021/11/05 03:50:15;;;;;;;40.90;19.77;;;6.10;99.30;;;;;;4896419;29;20036;-76
2021/11/05 03:52:40;;;;;;;23.67;17.90;;;6.00;99.40;;;;;;4896791;29;20072;-76
2021/11/05 03:55:08;;;;;;;25.20;17.33;;;6.00;99.40;;;;;;4897489;29;20079;-76
2021/11/05 03:57:34;;;;;;;29.13;17.83;;;6.00;99.30;;;;;;4897319;29;20044;-76
2021/11/05 04:00:00;;;;;;;31.83;16.83;;;5.90;99.20;;;;;;4897873;29;20053;-76
2021/11/05 04:02:26;;;;;;;25.93;17.40;;;5.70;99.10;;;;;;4896771;29;20061;-76
2021/11/05 04:04:55;;;;;;;19.93;16.33;;;5.60;99.10;;;;;;4881073;29;20083;-76
2021/11/05 04:07:22;;;;;;;18.50;16.17;;;5.60;99.10;;;;;;4881761;29;20422;-76
2021/11/05 04:09:48;;;;;;;25.33;16.83;;;5.60;99.20;;;;;;4897679;29;20136;-76
2021/11/05 04:12:15;;;;;;;26.73;16.67;;;5.50;99.10;;;;;;4881079;29;20188;-76
2021/11/05 04:14:41;;;;;;;18.93;16.40;;;5.50;99.20;;;;;;4899154;29;20040;-77
2021/11/05 04:17:06;;;;;;;19.80;16.43;;;5.40;99.10;;;;;;4885320;29;20064;-77
2021/11/05 04:19:32;;;;;;;18.83;16.50;;;5.40;99.40;;;;;;4900762;29;20131;-77
2021/11/05 04:21:58;;;;;;;18.80;16.20;;;5.50;99.50;;;;;;4885310;29;20044;-78
2021/11/05 04:24:24;;;;;;;19.80;16.57;;;5.40;99.20;;;;;;4900339;29;20049;-76
2021/11/05 04:26:49;;;;;;;20.73;17.63;;;5.30;99.10;;;;;;4884778;29;20147;-79
2021/11/05 04:29:17;;;;;;;19.53;16.63;;;5.40;99.40;;;;;;4884828;29;20045;-76
2021/11/05 04:31:44;;;;;;;20.53;16.90;;;5.40;99.40;;;;;;4885316;29;20400;-76
2021/11/05 04:34:10;;;;;;;20.63;17.60;;;5.40;99.40;;;;;;4900993;29;20433;-76
2021/11/05 04:36:36;;;;;;;20.27;16.40;;;5.50;99.60;;;;;;4900253;29;20123;-76
2021/11/05 04:39:03;;;;;;;17.80;15.80;;;5.50;99.50;;;;;;4900480;29;20123;-76
2021/11/05 04:41:29;;;;;;;18.27;16.10;;;5.50;99.50;;;;;;4900265;29;20485;-76
2021/11/05 04:43:55;;;;;;;18.57;15.73;;;5.50;99.40;;;;;;4899740;29;20139;-77
2021/11/05 04:46:20;;;;;;;21.23;15.17;;;5.50;99.40;;;;;;4899661;29;20060;-77
2021/11/05 04:48:46;;;;;;;18.17;14.57;;;5.50;99.40;;;;;;4899712;29;20040;-76
2021/11/05 04:51:11;;;;;;;17.67;14.03;;;5.50;99.30;;;;;;4899819;29;20059;-76
2021/11/05 04:53:37;;;;;;;18.47;14.37;;;5.40;99.30;;;;;;4899750;29;20066;-76
2021/11/05 04:56:04;;;;;;;15.90;14.17;;;5.30;99.10;;;;;;4899236;29;20056;-77
2021/11/05 04:58:29;;;;;;;18.60;15.33;;;5.10;99.00;;;;;;4899770;29;20062;-77
2021/11/05 05:00:55;;;;;;;17.63;15.47;;;4.90;98.90;;;;;;4899873;29;20493;-77
2021/11/05 05:03:21;;;;;;;18.63;14.70;;;4.90;99.00;;;;;;4883970;29;20084;-76
2021/11/05 05:05:47;;;;;;;19.30;15.63;;;4.80;98.90;;;;;;4899096;29;20072;-77
2021/11/05 05:08:13;;;;;;;22.73;15.87;;;4.70;99.00;;;;;;4883806;29;20041;-76
2021/11/05 05:10:38;;;;;;;22.13;17.17;;;4.70;99.00;;;;;;4899719;29;20041;-77
2021/11/05 05:13:04;;;;;;;23.60;19.10;;;4.70;99.20;;;;;;4899343;29;20055;-76
2021/11/05 05:15:30;;;;;;;24.93;19.23;;;4.70;99.10;;;;;;4900816;29;20049;-77
2021/11/05 05:17:55;;;;;;;24.70;18.90;;;4.80;99.10;;;;;;4899427;29;20072;-80
2021/11/05 05:20:22;;;;;;;28.70;20.20;;;4.80;99.20;;;;;;4884218;29;20083;-77
2021/11/05 05:22:48;;;;;;;30.47;19.93;;;5.00;99.20;;;;;;4883350;29;20108;-77
2021/11/05 05:25:15;;;;;;;28.47;20.67;;;5.10;99.20;;;;;;4899521;29;20040;-77
2021/11/05 05:27:43;;;;;;;27.67;21.07;;;5.10;99.20;;;;;;4899715;29;20343;-77
2021/11/05 05:30:12;;;;;;;34.63;21.13;;;5.10;99.20;;;;;;4899401;29;20037;-77
2021/11/05 05:32:42;;;;;;;30.43;20.33;;;5.20;99.30;;;;;;4900420;29;20096;-77
2021/11/05 05:35:09;;;;;;;28.57;19.63;;;5.30;99.30;;;;;;4885043;29;20052;-77
2021/11/05 05:37:34;;;;;;;27.20;19.90;;;5.40;99.20;;;;;;4899284;29;20048;-77
2021/11/05 05:40:00;;;;;;;28.23;19.67;;;5.40;99.20;;;;;;4898989;29;20041;-78
2021/11/05 05:42:26;;;;;;;28.97;20.00;;;5.40;99.10;;;;;;4883480;29;20048;-78
2021/11/05 05:44:51;;;;;;;24.50;18.57;;;5.40;99.10;;;;;;4899481;29;20036;-77
2021/11/05 05:47:17;;;;;;;26.40;19.20;;;5.40;99.20;;;;;;4900690;29;20045;-77
2021/11/05 05:49:43;;;;;;;26.60;19.67;;;5.50;99.20;;;;;;4899258;29;20041;-77
2021/11/05 05:52:08;;;;;;;25.20;18.73;;;5.40;99.10;;;;;;4898938;29;20478;-77
2021/11/05 05:54:34;;;;;;;23.77;18.10;;;5.40;99.20;;;;;;4900261;29;20042;-77
2021/11/05 05:57:00;;;;;;;24.57;17.73;;;5.40;99.30;;;;;;4899511;29;20045;-79
2021/11/05 05:59:26;;;;;;;24.90;18.27;;;5.30;99.10;;;;;;4898822;29;20048;-77
2021/11/05 06:01:52;;;;;;;24.23;17.50;;;5.30;99.10;;;;;;4898565;29;20037;-77
2021/11/05 06:04:19;;;;;;;21.23;16.87;;;5.30;99.20;;;;;;4898925;29;20055;-77
2021/11/05 06:06:45;;;;;;;23.63;17.03;;;5.30;99.20;;;;;;4883153;29;20115;-79
2021/11/05 06:09:11;;;;;;;21.60;16.97;;;5.40;99.30;;;;;;4883394;29;20048;-77
2021/11/05 06:11:37;;;;;;;21.97;17.40;;;5.40;99.30;;;;;;4898881;29;20044;-77
2021/11/05 06:14:02;;;;;;;22.97;18.23;;;5.40;99.30;;;;;;4898970;29;20040;-79
2021/11/05 06:16:28;;;;;;;24.73;18.10;;;5.40;99.40;;;;;;4899071;29;20501;-77
2021/11/05 06:18:54;;;;;;;25.33;18.07;;;5.40;99.50;;;;;;4899163;29;20488;-77
2021/11/05 06:21:24;;;;;;;24.17;19.10;;;5.60;99.60;;;;;;4898638;29;20139;-77
2021/11/05 06:23:51;;;;;;;26.37;18.00;;;5.60;99.60;;;;;;4898393;29;20041;-77
2021/11/05 06:26:17;;;;;;;25.77;19.23;;;5.80;99.60;;;;;;4898290;29;20064;-77
2021/11/05 06:28:43;;;;;;;25.87;17.90;;;5.90;99.80;;;;;;4898223;29;20104;-76
2021/11/05 06:31:09;;;;;;;23.83;18.90;;;6.00;99.70;;;;;;4882817;29;20033;-78
2021/11/05 06:33:34;;;;;;;20.50;17.00;;;6.00;99.60;;;;;;4898710;29;20538;-78
2021/11/05 06:36:00;;;;;;;23.20;17.80;;;6.10;99.70;;;;;;4899003;29;20120;-77
2021/11/05 06:38:25;;;;;;;20.27;17.07;;;6.20;99.60;;;;;;4881959;29;20037;-77
2021/11/05 06:40:52;;;;;;;20.63;18.33;;;6.20;99.60;;;;;;4882490;29;20541;-77
2021/11/05 06:43:18;;;;;;;21.90;16.43;;;6.20;99.60;;;;;;4897726;29;20041;-76
2021/11/05 06:45:44;;;;;;;22.57;16.13;;;6.20;99.60;;;;;;4882591;29;20465;-77
2021/11/05 06:48:11;;;;;;;23.00;18.40;;;6.20;99.50;;;;;;4897944;29;20425;-78
2021/11/05 06:50:38;;;;;;;19.87;16.97;;;6.20;99.60;;;;;;4882250;29;20033;-77
2021/11/05 06:53:04;;;;;;;19.20;16.80;;;6.30;99.60;;;;;;4882547;29;20047;-77
2021/11/05 06:55:29;;;;;;;21.10;16.77;;;6.30;99.50;;;;;;4882155;29;20032;-78
2021/11/05 06:57:55;;;;;;;19.60;16.23;;;6.20;99.50;;;;;;4899033;29;20043;-78
2021/11/05 07:00:21;;;;;;;19.87;16.23;;;6.20;99.40;;;;;;4883245;29;20036;-78
2021/11/05 07:02:47;;;;;;;23.60;16.10;;;6.10;99.40;;;;;;4883463;29;20041;-77
2021/11/05 07:05:15;;;;;;;21.23;16.97;;;6.10;99.50;;;;;;4899545;29;20051;-79
2021/11/05 07:07:41;;;;;;;19.87;16.33;;;6.10;99.50;;;;;;4902974;29;20168;-77
2021/11/05 07:10:09;;;;;;;40.97;16.13;;;6.10;99.40;;;;;;4887088;29;20032;-77
2021/11/05 07:12:35;;;;;;;19.93;16.10;;;6.10;99.50;;;;;;4903270;29;20093;-77
2021/11/05 07:15:02;;;;;;;24.13;15.63;;;6.10;99.60;;;;;;4901687;29;20040;-78
2021/11/05 07:17:28;;;;;;;34.10;17.27;;;6.00;99.60;;;;;;4899897;29;20041;-78
2021/11/05 07:19:53;;;;;;;20.23;16.47;;;6.00;99.70;;;;;;4882184;29;20056;-77
2021/11/05 07:22:20;;;;;;;22.23;17.03;;;6.10;99.90;;;;;;4881923;29;20505;-78
2021/11/05 07:24:46;;;;;;;28.53;19.50;;;6.10;99.90;;;;;;4899606;29;20056;-77
2021/11/05 07:27:12;;;;;;;22.83;18.50;;;6.40;99.90;;;;;;4882159;29;20040;-79
2021/11/05 07:29:38;;;;;;;20.97;17.23;;;7.00;99.90;;;;;;4897062;29;20045;-77
2021/11/05 07:32:08;;;;;;;16.23;14.40;;;7.70;99.90;;;;;;4897254;29;20044;-77
2021/11/05 07:34:35;;;;;;;14.63;12.70;;;8.30;99.90;;;;;;4898331;29;20116;-77
2021/11/05 07:37:03;;;;;;;12.73;11.43;;;8.70;98.90;;;;;;4896860;29;20055;-77
2021/11/05 07:39:29;;;;;;;12.80;10.07;;;9.10;97.90;;;;;;4898539;29;20043;-77
2021/11/05 07:41:56;;;;;;;10.97;9.37;;;9.40;96.60;;;;;;4897170;29;20519;-77
2021/11/05 07:44:22;;;;;;;13.13;9.90;;;9.50;95.40;;;;;;4897849;29;20048;-77
2021/11/05 07:46:48;;;;;;;9.97;8.90;;;9.60;95.00;;;;;;4912720;29;20068;-77
2021/11/05 07:49:17;;;;;;;9.73;8.73;;;10.00;94.90;;;;;;4898678;29;20075;-76
2021/11/05 07:51:43;;;;;;;8.43;7.60;;;10.40;94.20;;;;;;4912671;29;20136;-77
2021/11/05 07:54:09;;;;;;;7.53;6.60;;;10.90;93.00;;;;;;4896628;29;20036;-76
2021/11/05 07:56:35;;;;;;;8.30;7.07;;;11.10;92.00;;;;;;4928577;29;20171;-76
2021/11/05 07:59:02;;;;;;;7.37;6.43;;;11.40;90.90;;;;;;4896851;29;20108;-77
2021/11/05 08:01:28;;;;;;;8.20;6.53;;;11.60;90.40;;;;;;4928987;29;20037;-78
2021/11/05 08:03:54;;;;;;;7.60;5.97;;;11.70;89.70;;;;;;4896551;29;20095;-77
2021/11/05 08:06:19;;;;;;;9.47;6.83;;;12.10;88.60;;;;;;4911655;29;20506;-79
2021/11/05 08:08:45;;;;;;;7.35;5.93;;;12.50;87.30;;;;;;4896952;29;20041;-78
2021/11/05 08:11:12;;;;;;;7.13;5.28;;;12.90;85.30;;;;;;4927913;29;20044;-77
2021/11/05 08:13:38;;;;;;;7.05;6.32;;;13.30;83.00;;;;;;4928104;29;20036;-78
2021/11/05 08:16:04;;;;;;;8.93;7.40;;;13.50;81.50;;;;;;4927414;29;20037;-76
2021/11/05 08:18:29;;;;;;;7.53;5.82;;;13.60;80.60;;;;;;4896396;29;20418;-77
2021/11/05 08:20:55;;;;;;;7.13;5.47;;;13.90;79.70;;;;;;4896292;29;20424;-76
2021/11/05 08:23:21;;;;;;;9.02;6.40;;;14.40;79.00;;;;;;4900144;29;20425;-79
2021/11/05 08:25:48;;;;;;;8.77;6.00;;;14.70;76.80;;;;;;4897251;29;20536;-76
2021/11/05 08:28:18;;;;;;;10.48;6.90;;;14.40;75.30;;;;;;4895733;29;20036;-78
2021/11/05 08:30:46;;;;;;;6.20;5.30;;;14.20;76.00;;;;;;4896301;29;20120;-78
2021/11/05 08:33:12;;;;;;;6.75;5.70;;;14.20;76.40;;;;;;4897075;29;20083;-76
2021/11/05 08:35:40;;;;;;;8.25;5.45;;;14.40;76.10;;;;;;4897282;29;20076;-78
2021/11/05 08:38:08;;;;;;;8.30;4.63;;;14.70;75.80;;;;;;4895871;29;20120;-76
2021/11/05 08:40:35;;;;;;;6.80;5.43;;;15.10;74.60;;;;;;4911113;29;20468;-77
2021/11/05 08:43:00;;;;;;;6.57;5.32;;;15.30;74.20;;;;;;4927481;29;20060;-76
2021/11/05 08:45:26;;;;;;;7.50;5.35;;;15.60;73.10;;;;;;4895873;29;20486;-76
2021/11/05 08:47:52;;;;;;;6.43;5.03;;;16.00;72.40;;;;;;4911734;29;20053;-76
2021/11/05 08:50:22;;;;;;;7.50;4.47;;;16.20;71.50;;;;;;4895799;29;20064;-75
2021/11/05 08:52:48;;;;;;;6.28;4.93;;;16.40;71.20;;;;;;4895736;29;20037;-75
2021/11/05 08:55:15;;;;;;;6.40;4.93;;;16.70;70.40;;;;;;4927058;29;20045;-76
2021/11/05 08:57:41;;;;;;;10.25;6.22;;;16.90;69.90;;;;;;4927608;29;20048;-75
2021/11/05 09:00:22;;;;;;;7.47;6.05;;;17.20;69.60;;;;;;4927815;29;20366;-77
2021/11/05 09:02:48;;;;;;;8.80;6.25;;;17.60;68.70;;;;;;4900476;29;20040;-76
2021/11/05 09:05:15;;;;;;;14.27;8.75;;;17.90;67.60;;;;;;4900339;29;20064;-75
2021/11/05 09:07:41;;;;;;;7.38;4.53;;;17.70;66.60;;;;;;4916046;29;20068;-75
2021/11/05 09:10:08;;;;;;;8.40;5.68;;;17.50;66.60;;;;;;4900654;29;20383;-76
2021/11/05 09:12:36;;;;;;;6.93;5.32;;;17.30;67.20;;;;;;4898579;29;20040;-76
2021/11/05 09:15:03;;;;;;;7.78;6.07;;;17.50;67.80;;;;;;4899550;29;20124;-75
2021/11/05 09:17:29;;;;;;;7.10;5.20;;;17.40;67.10;;;;;;4914937;29;20124;-76
2021/11/05 09:19:54;;;;;;;6.43;5.68;;;17.00;67.00;;;;;;4915463;29;20075;-75
2021/11/05 09:22:20;;;;;;;7.20;5.63;;;16.70;68.50;;;;;;4931210;29;20108;-76
2021/11/05 09:24:46;;;;;;;9.30;5.40;;;16.40;69.30;;;;;;4931161;29;20044;-76
2021/11/05 09:27:12;;;;;;;10.07;5.05;;;16.60;69.70;;;;;;4914984;29;20553;-76
2021/11/05 09:29:38;;;;;;;5.28;3.90;;;16.90;68.50;;;;;;4901049;29;20060;-76
2021/11/05 09:32:04;;;;;;;6.93;4.50;;;17.20;68.10;;;;;;4900504;29;20032;-76
2021/11/05 09:34:31;;;;;;;7.28;4.63;;;17.20;67.50;;;;;;4931283;29;20096;-78
2021/11/05 09:37:01;;;;;;;7.68;4.93;;;17.00;67.80;;;;;;4915035;29;20113;-75
2021/11/05 09:39:28;;;;;;;5.70;3.90;;;16.90;68.40;;;;;;4915329;29;20068;-76
2021/11/05 09:41:54;;;;;;;7.35;4.40;;;17.00;68.60;;;;;;4900650;29;20024;-76
2021/11/05 09:44:20;;;;;;;7.40;4.40;;;17.30;68.20;;;;;;4930679;29;20494;-75
2021/11/05 09:46:45;;;;;;;8.15;4.20;;;17.70;67.40;;;;;;4930740;29;20112;-76
2021/11/05 09:49:11;;;;;;;8.68;6.88;;;17.80;66.30;;;;;;4930449;29;20458;-76
2021/11/05 09:51:37;;;;;;;9.93;7.55;;;17.60;67.00;;;;;;4899029;29;20045;-76
2021/11/05 09:54:03;;;;;;;13.95;10.75;;;17.60;68.40;;;;;;4899098;29;20048;-76
2021/11/05 09:56:29;;;;;;;11.52;6.88;;;17.80;67.70;;;;;;4900043;29;20040;-74
2021/11/05 09:58:55;;;;;;;9.10;6.13;;;18.20;67.20;;;;;;4915035;29;20537;-76
2021/11/05 10:01:21;;;;;;;11.90;8.52;;;18.80;66.40;;;;;;4930980;29;20068;-76
2021/11/05 10:03:46;;;;;;;8.63;5.68;;;19.20;65.20;;;;;;4900453;29;20355;-76
2021/11/05 10:06:13;;;;;;;12.25;8.20;;;19.20;64.20;;;;;;4930372;29;20401;-77
2021/11/05 10:08:39;;;;;;;17.50;11.25;;;19.10;65.00;;;;;;4900503;29;20036;-77
2021/11/05 10:11:25;;;;;;;9.15;6.10;;;19.20;65.30;;;;;;4898854;29;20051;-76
2021/11/05 10:13:56;;;;;;;10.05;6.60;;;19.50;63.80;;;;;;4898279;29;20051;-77
2021/11/05 10:16:25;;;;;;;7.32;4.93;;;19.50;64.30;;;;;;4914590;29;20124;-77
2021/11/05 10:19:06;;;;;;;9.20;4.55;;;19.70;63.80;;;;;;4899699;29;20083;-77
2021/11/05 10:21:46;;;;;;;9.82;7.40;;;19.80;63.40;;;;;;4929992;29;20045;-76
2021/11/05 10:24:19;;;;;;;9.98;6.25;;;19.70;63.30;;;;;;4898224;29;20053;-76
2021/11/05 10:26:47;;;;;;;11.45;6.18;;;19.30;64.50;;;;;;4898970;29;20033;-77
2021/11/05 10:29:27;;;;;;;10.20;6.70;;;19.10;63.90;;;;;;4897944;29;20040;-77
2021/11/05 10:32:04;;;;;;;10.55;7.50;;;19.00;64.40;;;;;;4898171;29;20088;-76
2021/11/05 10:34:51;;;;;;;9.13;6.90;;;19.00;64.30;;;;;;4897930;29;20076;-76
2021/11/05 10:37:28;;;;;;;8.02;4.72;;;19.20;63.90;;;;;;4899337;29;20025;-75
2021/11/05 10:39:56;;;;;;;10.13;5.60;;;19.30;63.80;;;;;;4897906;29;20036;-77
2021/11/05 10:42:41;;;;;;;6.90;3.85;;;19.50;63.40;;;;;;4898688;29;20044;-77
2021/11/05 10:45:17;;;;;;;7.45;4.38;;;19.70;62.90;;;;;;4898725;29;20040;-77
2021/11/05 10:47:57;;;;;;;7.47;3.33;;;19.80;63.00;;;;;;4898255;29;20071;-78
2021/11/05 10:50:27;;;;;;;5.43;3.00;;;19.90;62.00;;;;;;4898238;29;20100;-78
2021/11/05 10:53:07;;;;;;;8.18;3.53;;;20.00;62.20;;;;;;4899448;29;20064;-77
2021/11/05 10:55:49;;;;;;;10.85;4.53;;;20.20;62.10;;;;;;4898547;29;20365;-78
2021/11/05 10:58:29;;;;;;;6.40;3.15;;;20.30;61.80;;;;;;4898595;29;20037;-78
2021/11/05 11:01:08;;;;;;;8.27;3.70;;;20.40;61.60;;;;;;4897765;29;20059;-78
2021/11/05 11:03:41;;;;;;;7.63;3.80;;;20.40;61.20;;;;;;4898064;29;20374;-79
2021/11/05 11:06:07;;;;;;;;;;;20.40;61.80;;;;;;4928033;29;20056;-77
2021/11/05 11:08:35;;;;;;;6.68;2.85;;;20.50;61.00;;;;;;4929710;29;19955;-77
2021/11/05 11:11:30;;;;;;;5.60;2.63;;;20.40;61.40;;;;;;4897329;29;20069;-77
2021/11/05 11:14:01;;;;;;;5.55;3.35;;;20.30;61.60;;;;;;4898894;29;20386;-77
2021/11/05 11:16:48;;;;;;;9.33;3.80;;;20.50;61.70;;;;;;4898580;29;20442;-76
2021/11/05 11:19:23;;;;;;;10.15;3.17;;;20.60;61.20;;;;;;4897278;29;20032;-77
2021/11/05 11:21:48;;;;;;;7.07;4.70;;;20.40;61.10;;;;;;4897074;29;20060;-77
2021/11/05 11:24:16;;;;;;;11.30;4.30;;;20.20;61.70;;;;;;4897040;29;20087;-77
2021/11/05 11:26:44;;;;;;;9.65;4.30;;;20.20;61.60;;;;;;4897133;29;20478;-79
2021/11/05 11:29:12;;;;;;;7.90;3.20;;;20.20;62.20;;;;;;4897165;29;20100;-77
2021/11/05 11:31:40;;;;;;;13.23;6.10;;;19.90;62.00;;;;;;4912821;29;20040;-77
2021/11/05 11:34:08;;;;;;;7.65;4.57;;;19.80;63.00;;;;;;4912913;29;20053;-77
2021/11/05 11:36:43;;;;;;;8.85;5.03;;;19.80;63.00;;;;;;4897547;29;20032;-78
2021/11/05 11:39:15;;;;;;;7.85;4.07;;;20.00;64.10;;;;;;4897625;29;20088;-77
2021/11/05 11:41:42;;;;;;;10.68;3.80;;;19.70;62.60;;;;;;4897935;29;20091;-77
2021/11/05 11:44:09;;;;;;;7.70;3.95;;;19.30;63.70;;;;;;4898242;29;20040;-77
2021/11/05 11:47:00;;;;;;;7.18;3.58;;;18.90;64.30;;;;;;4913154;29;20483;-77
2021/11/05 11:49:37;;;;;;;5.65;3.92;;;18.60;65.10;;;;;;4897171;29;20037;-77
2021/11/05 11:52:24;;;;;;;12.27;5.22;;;18.30;65.90;;;;;;4897239;29;20041;-77
2021/11/05 11:54:52;;;;;;;10.25;4.47;;;18.10;67.10;;;;;;4896900;29;20076;-78
2021/11/05 11:57:23;;;;;;;8.68;4.00;;;18.00;67.10;;;;;;4898639;29;20132;-78
2021/11/05 12:00:08;;;;;;;10.23;5.40;;;17.80;67.40;;;;;;4907686;29;20084;-78
2021/11/05 12:02:36;;;;;;;12.27;5.50;;;17.60;68.00;;;;;;4898378;29;20553;-78
2021/11/05 12:05:24;;;;;;;8.68;4.72;;;17.50;68.80;;;;;;4896569;29;20473;-78
2021/11/05 12:08:18;;;;;;;10.15;4.50;;;17.50;69.20;;;;;;4897311;29;20052;-79
2021/11/05 12:10:54;;;;;;;10.73;4.55;;;17.50;69.20;;;;;;4898931;29;20037;-78
2021/11/05 12:13:35;;;;;;;6.82;4.15;;;17.50;69.10;;;;;;4897165;29;20440;-78
2021/11/05 12:16:11;;;;;;;6.03;2.80;;;17.30;69.30;;;;;;4897000;29;20493;-78
2021/11/05 12:19:03;;;;;;;6.18;3.55;;;17.10;69.30;;;;;;4896852;29;20047;-79
2021/11/05 12:21:34;;;;;;;7.60;4.65;;;17.00;70.60;;;;;;4897788;29;20041;-76
2021/11/05 12:24:15;;;;;;;8.60;4.85;;;16.80;70.40;;;;;;4897570;29;20462;-77
2021/11/05 12:26:44;;;;;;;10.20;3.92;;;16.60;71.10;;;;;;4897663;29;20400;-77
2021/11/05 12:29:10;;;;;;;6.95;3.92;;;16.50;71.90;;;;;;4896760;29;20128;-78
2021/11/05 12:31:43;;;;;;;9.73;4.60;;;16.40;72.10;;;;;;4896538;29;20115;-78
2021/11/05 12:34:24;;;;;;;;;;;16.30;72.20;;;;;;4897140;29;20071;-78
2021/11/05 12:36:55;;;;;;;5.47;2.78;;;16.20;72.90;;;;;;4900499;29;19943;-77
2021/11/05 12:39:41;;;;;;;9.10;4.00;;;16.20;73.20;;;;;;4900266;29;20041;-77
2021/11/05 12:42:17;;;;;;;11.77;6.43;;;16.20;73.20;;;;;;4899929;29;20067;-77
2021/11/05 12:44:56;;;;;;;8.02;4.15;;;16.10;73.50;;;;;;4930984;29;20052;-77